Time;durP1;ratioP1;P1;durP2;ratioP2;P2;SDS_P1;SDS_P2;PMS_P1;PMS_P2;Temp;Humidity;BMP_temperature;BMP_pressure;BME280_temperature;BME280_humidity;BME280_pressure;Samples;Min_cycle;Max_cycle;Signal;HPM_P1;HPM_P2
2021/09/07 00:00:46;;;;;;;24.00;17.33;;;13.80;99.90;;;;;;5059518;28;20148;-87
2021/09/07 00:03:13;;;;;;;24.25;16.60;;;13.70;99.90;;;;;;5058908;28;20068;-87
2021/09/07 00:05:40;;;;;;;22.02;17.83;;;13.70;99.90;;;;;;5058682;28;20048;-87
2021/09/07 00:08:06;;;;;;;22.95;17.75;;;13.70;99.90;;;;;;5076511;28;20131;-87
2021/09/07 00:10:33;;;;;;;25.05;18.27;;;13.60;99.90;;;;;;5076143;28;20048;-87
2021/09/07 00:13:00;;;;;;;18.98;16.70;;;13.70;99.90;;;;;;5076030;28;20058;-87
2021/09/07 00:15:27;;;;;;;23.95;17.27;;;13.70;99.90;;;;;;5058764;28;20555;-87
2021/09/07 00:17:54;;;;;;;23.67;17.60;;;13.70;99.90;;;;;;5059128;28;20083;-87
2021/09/07 00:20:23;;;;;;;23.15;17.70;;;13.70;99.90;;;;;;5070846;28;20057;-88
2021/09/07 00:22:50;;;;;;;24.73;18.10;;;13.70;99.90;;;;;;5069654;28;20059;-87
2021/09/07 00:25:17;;;;;;;22.27;17.15;;;13.70;99.90;;;;;;5058760;28;20462;-87
2021/09/07 00:27:44;;;;;;;25.60;18.42;;;13.80;99.90;;;;;;5058391;28;20048;-88
2021/09/07 00:30:11;;;;;;;24.20;17.60;;;13.80;99.90;;;;;;5058309;28;20079;-87
2021/09/07 00:32:38;;;;;;;27.67;18.20;;;13.80;99.90;;;;;;5058298;28;20040;-87
2021/09/07 00:35:07;;;;;;;27.40;17.65;;;13.80;99.90;;;;;;5075952;28;20408;-87
2021/09/07 00:37:35;;;;;;;26.40;17.25;;;13.90;99.90;;;;;;5057291;28;20052;-87
2021/09/07 00:40:02;;;;;;;22.67;17.52;;;13.80;99.90;;;;;;5058547;28;20439;-87
2021/09/07 00:42:34;;;;;;;19.52;17.35;;;13.80;99.90;;;;;;5075555;28;20476;-87
2021/09/07 00:45:02;;;;;;;22.70;17.65;;;13.80;99.90;;;;;;5057962;28;20055;-87
2021/09/07 00:47:30;;;;;;;21.65;16.98;;;13.80;99.90;;;;;;5075409;28;20052;-87
2021/09/07 00:49:57;;;;;;;18.60;15.48;;;13.90;99.90;;;;;;5058110;28;20045;-87
2021/09/07 00:52:25;;;;;;;21.13;17.05;;;13.80;99.90;;;;;;5058276;28;20485;-87
2021/09/07 00:54:53;;;;;;;22.83;17.13;;;13.70;99.90;;;;;;5057896;28;20525;-87
2021/09/07 00:57:23;;;;;;;21.90;16.30;;;13.70;99.90;;;;;;5057824;28;20098;-87
2021/09/07 00:59:54;;;;;;;20.05;16.65;;;13.60;99.90;;;;;;5057993;28;20048;-88
2021/09/07 01:02:21;;;;;;;23.65;16.02;;;13.60;99.90;;;;;;5057679;28;20412;-87
2021/09/07 01:04:48;;;;;;;25.55;17.73;;;13.60;99.90;;;;;;5057716;28;20049;-87
2021/09/07 01:07:16;;;;;;;24.77;17.90;;;13.50;99.90;;;;;;5075097;28;20749;-87
2021/09/07 01:09:44;;;;;;;22.63;16.88;;;13.50;99.90;;;;;;5075077;28;20059;-87
2021/09/07 01:12:11;;;;;;;23.17;17.67;;;13.50;99.90;;;;;;5057596;28;20140;-87
2021/09/07 01:14:40;;;;;;;21.55;17.23;;;13.50;99.90;;;;;;5057502;28;20044;-87
2021/09/07 01:17:12;;;;;;;21.38;16.50;;;13.60;99.90;;;;;;5057411;28;20061;-87
2021/09/07 01:19:42;;;;;;;23.45;16.88;;;13.60;99.90;;;;;;5057363;28;20127;-87
2021/09/07 01:22:09;;;;;;;21.05;16.98;;;13.60;99.90;;;;;;5057497;28;20557;-87
2021/09/07 01:24:36;;;;;;;20.17;16.20;;;13.60;99.90;;;;;;5057234;28;20052;-87
2021/09/07 01:27:05;;;;;;;20.15;16.25;;;13.60;99.90;;;;;;5074979;28;20063;-88
2021/09/07 01:29:38;;;;;;;20.50;16.30;;;13.60;99.90;;;;;;5057998;28;20064;-87
2021/09/07 01:32:06;;;;;;;19.52;16.33;;;13.50;99.90;;;;;;5074896;28;20481;-87
2021/09/07 01:34:34;;;;;;;20.77;16.73;;;13.60;99.90;;;;;;5057258;28;20066;-87
2021/09/07 01:37:01;;;;;;;19.45;15.50;;;13.60;99.90;;;;;;5057456;28;20062;-87
2021/09/07 01:39:28;;;;;;;21.25;16.88;;;13.60;99.90;;;;;;5070711;28;20096;-87
2021/09/07 01:41:55;;;;;;;23.33;16.95;;;13.50;99.90;;;;;;5073196;28;20049;-87
2021/09/07 01:44:23;;;;;;;22.10;16.20;;;13.40;99.90;;;;;;5056930;28;20059;-86
2021/09/07 01:46:50;;;;;;;19.77;16.73;;;13.30;99.90;;;;;;5074312;28;20055;-87
2021/09/07 01:49:17;;;;;;;23.52;16.40;;;13.40;99.90;;;;;;5056913;28;20098;-88
2021/09/07 01:51:45;;;;;;;19.88;15.82;;;13.30;99.90;;;;;;5057542;28;20048;-87
2021/09/07 01:54:13;;;;;;;19.35;15.63;;;13.30;99.90;;;;;;5056854;28;20044;-87
2021/09/07 01:56:40;;;;;;;24.75;17.30;;;13.20;99.90;;;;;;5056739;28;20045;-87
2021/09/07 01:59:07;;;;;;;21.45;16.95;;;13.10;99.90;;;;;;5056593;28;20048;-87
2021/09/07 02:01:34;;;;;;;27.48;19.60;;;13.00;99.90;;;;;;5056399;28;20139;-87
2021/09/07 02:04:01;;;;;;;25.75;18.95;;;13.00;99.90;;;;;;5056463;28;20048;-87
2021/09/07 02:06:28;;;;;;;23.40;18.00;;;13.00;99.90;;;;;;5056706;28;20051;-88
2021/09/07 02:08:55;;;;;;;32.35;19.67;;;13.00;99.90;;;;;;5056533;28;20055;-87
2021/09/07 02:11:22;;;;;;;26.88;19.92;;;13.00;99.90;;;;;;5056592;28;20044;-87
2021/09/07 02:13:48;;;;;;;31.77;21.30;;;13.00;99.90;;;;;;5056600;28;20048;-87
2021/09/07 02:16:15;;;;;;;29.25;20.70;;;12.90;99.90;;;;;;5056604;28;20045;-87
2021/09/07 02:18:42;;;;;;;29.33;20.08;;;12.90;99.90;;;;;;5056553;28;20052;-87
2021/09/07 02:21:09;;;;;;;26.25;20.10;;;13.00;99.90;;;;;;5056377;28;20051;-87
2021/09/07 02:23:35;;;;;;;23.23;19.10;;;13.00;99.90;;;;;;5056250;28;20048;-88
2021/09/07 02:26:02;;;;;;;24.40;19.00;;;13.10;99.90;;;;;;5056465;28;20044;-88
2021/09/07 02:28:29;;;;;;;28.80;19.20;;;13.20;99.90;;;;;;5056274;28;20493;-87
2021/09/07 02:30:55;;;;;;;27.73;19.45;;;13.10;99.90;;;;;;5056422;28;20067;-87
2021/09/07 02:33:22;;;;;;;23.85;18.10;;;13.10;99.90;;;;;;5056196;28;20049;-88
2021/09/07 02:35:49;;;;;;;24.00;18.88;;;13.10;99.90;;;;;;5056343;28;20048;-87
2021/09/07 02:38:16;;;;;;;25.42;20.02;;;13.10;99.90;;;;;;5073654;28;20564;-87
2021/09/07 02:40:42;;;;;;;26.27;18.70;;;13.20;99.90;;;;;;5056160;28;20054;-88
2021/09/07 02:43:09;;;;;;;24.50;18.33;;;13.10;99.90;;;;;;5056140;28;20095;-88
2021/09/07 02:45:36;;;;;;;23.27;17.98;;;13.10;99.90;;;;;;5056123;28;20548;-87
2021/09/07 02:48:03;;;;;;;25.02;18.83;;;13.00;99.90;;;;;;5056093;28;20048;-88
2021/09/07 02:50:29;;;;;;;29.90;20.23;;;13.00;99.90;;;;;;5056168;28;20044;-87
2021/09/07 02:52:56;;;;;;;26.85;19.38;;;12.90;99.90;;;;;;5056173;28;20040;-88
2021/09/07 02:55:23;;;;;;;25.63;19.88;;;13.00;99.90;;;;;;5073721;28;20048;-88
2021/09/07 02:57:50;;;;;;;24.73;19.25;;;12.90;99.90;;;;;;5066136;28;20055;-88
2021/09/07 03:00:17;;;;;;;27.55;17.38;;;13.00;99.90;;;;;;5080368;28;20057;-87
2021/09/07 03:02:44;;;;;;;23.38;17.92;;;13.10;99.90;;;;;;5059991;28;20049;-88
2021/09/07 03:05:11;;;;;;;22.40;16.98;;;13.10;99.90;;;;;;5061373;28;20048;-87
2021/09/07 03:07:38;;;;;;;19.73;16.67;;;13.20;99.90;;;;;;5059963;28;20048;-88
2021/09/07 03:10:05;;;;;;;21.75;17.05;;;13.20;99.90;;;;;;5059876;28;20131;-88
2021/09/07 03:12:32;;;;;;;18.17;15.73;;;13.20;99.90;;;;;;5077445;28;20047;-87
2021/09/07 03:14:59;;;;;;;21.80;16.70;;;13.30;99.90;;;;;;5060095;28;20049;-87
2021/09/07 03:17:26;;;;;;;27.75;17.88;;;13.30;99.90;;;;;;5059959;28;20498;-87
2021/09/07 03:19:53;;;;;;;22.40;17.23;;;13.20;99.90;;;;;;5077151;28;20048;-87
2021/09/07 03:22:20;;;;;;;21.83;16.70;;;13.20;99.90;;;;;;5059760;28;20048;-87
2021/09/07 03:24:47;;;;;;;21.48;16.95;;;13.20;99.90;;;;;;5077061;28;20049;-87
2021/09/07 03:27:14;;;;;;;22.58;16.30;;;13.10;99.90;;;;;;5059666;28;20052;-88
2021/09/07 03:29:40;;;;;;;22.13;15.70;;;13.10;99.90;;;;;;5060236;28;20559;-87
2021/09/07 03:32:08;;;;;;;23.85;16.83;;;13.10;99.90;;;;;;5060858;28;20059;-88
2021/09/07 03:34:35;;;;;;;19.90;16.48;;;13.10;99.90;;;;;;5059770;28;20048;-88
2021/09/07 03:37:02;;;;;;;24.25;17.33;;;13.20;99.90;;;;;;5059572;28;20051;-88
2021/09/07 03:39:29;;;;;;;23.88;17.35;;;13.10;99.90;;;;;;5059305;28;20053;-87
2021/09/07 03:41:55;;;;;;;31.23;18.17;;;13.10;99.90;;;;;;5076864;28;20046;-88
2021/09/07 03:44:22;;;;;;;24.90;18.27;;;13.10;99.90;;;;;;5059133;28;20080;-87
2021/09/07 03:46:49;;;;;;;25.42;18.08;;;13.10;99.90;;;;;;5060454;28;20045;-87
2021/09/07 03:49:16;;;;;;;22.75;17.92;;;13.00;99.90;;;;;;5060070;28;20052;-88
2021/09/07 03:51:43;;;;;;;22.65;17.77;;;13.10;99.90;;;;;;5059279;28;20121;-88
2021/09/07 03:54:10;;;;;;;23.05;16.92;;;13.10;99.90;;;;;;5059118;28;20054;-87
2021/09/07 03:56:37;;;;;;;24.42;17.30;;;13.10;99.90;;;;;;5059219;28;20041;-88
2021/09/07 03:59:04;;;;;;;23.52;18.73;;;13.10;99.90;;;;;;5076518;28;20048;-88
2021/09/07 04:01:31;;;;;;;21.33;17.10;;;13.10;99.90;;;;;;5076042;28;20052;-88
2021/09/07 04:03:58;;;;;;;20.77;16.38;;;13.10;99.90;;;;;;5076889;28;20048;-88
2021/09/07 04:06:25;;;;;;;23.73;17.17;;;13.20;99.90;;;;;;5076185;28;20489;-88
2021/09/07 04:08:52;;;;;;;26.95;16.67;;;13.20;99.90;;;;;;5058563;28;20565;-88
2021/09/07 04:11:19;;;;;;;19.00;15.57;;;13.30;99.90;;;;;;5057162;28;20079;-87
2021/09/07 04:13:46;;;;;;;20.98;15.57;;;13.30;99.90;;;;;;5059024;28;20080;-88
2021/09/07 04:16:12;;;;;;;21.35;16.30;;;13.20;99.90;;;;;;5069804;28;20096;-88
2021/09/07 04:18:39;;;;;;;17.58;14.98;;;13.20;99.90;;;;;;5083470;28;20032;-87
2021/09/07 04:21:09;;;;;;;18.15;15.38;;;13.20;99.90;;;;;;5078204;28;20044;-87
2021/09/07 04:23:36;;;;;;;22.30;16.42;;;13.30;99.90;;;;;;5058303;28;20048;-87
2021/09/07 04:26:04;;;;;;;23.75;15.88;;;13.30;99.90;;;;;;5058076;28;20147;-87
2021/09/07 04:28:31;;;;;;;23.88;16.05;;;13.20;99.90;;;;;;5057879;28;20488;-87
2021/09/07 04:30:58;;;;;;;21.30;14.77;;;13.30;99.90;;;;;;5075498;28;20054;-87
2021/09/07 04:33:25;;;;;;;20.02;16.23;;;13.20;99.90;;;;;;5057940;28;20048;-87
2021/09/07 04:35:51;;;;;;;19.77;15.85;;;13.30;99.90;;;;;;5057958;28;20136;-87
2021/09/07 04:38:18;;;;;;;21.45;15.52;;;13.30;99.90;;;;;;5057844;28;20516;-87
2021/09/07 04:40:45;;;;;;;23.10;15.35;;;13.30;99.90;;;;;;5058182;28;20048;-87
2021/09/07 04:43:11;;;;;;;24.73;16.17;;;13.30;99.90;;;;;;5058050;28;20421;-88
2021/09/07 04:45:38;;;;;;;26.38;16.17;;;13.20;99.90;;;;;;5057927;28;20059;-87
2021/09/07 04:48:05;;;;;;;19.80;16.85;;;13.20;99.90;;;;;;5058115;28;20561;-87
2021/09/07 04:50:32;;;;;;;24.08;16.58;;;13.10;99.90;;;;;;5075388;28;20564;-86
2021/09/07 04:52:59;;;;;;;18.35;15.23;;;13.00;99.90;;;;;;5057483;28;20045;-87
2021/09/07 04:55:25;;;;;;;22.00;16.40;;;13.00;99.90;;;;;;5075423;28;20072;-87
2021/09/07 04:57:52;;;;;;;24.63;16.45;;;13.10;99.90;;;;;;5075673;28;20044;-88
2021/09/07 05:00:19;;;;;;;19.70;15.88;;;13.10;99.90;;;;;;5075297;28;20481;-87
2021/09/07 05:02:46;;;;;;;24.50;16.65;;;13.10;99.90;;;;;;5057722;28;20045;-87
2021/09/07 05:05:13;;;;;;;21.73;17.48;;;13.20;99.90;;;;;;5058830;28;20059;-86
2021/09/07 05:07:39;;;;;;;22.25;15.95;;;13.20;99.90;;;;;;5057331;28;20461;-87
2021/09/07 05:10:07;;;;;;;24.40;17.00;;;13.20;99.90;;;;;;5057453;28;20044;-87
2021/09/07 05:12:34;;;;;;;18.08;15.52;;;13.20;99.90;;;;;;5057295;28;20110;-87
2021/09/07 05:15:00;;;;;;;22.23;16.27;;;13.30;99.90;;;;;;5057469;28;20467;-87
2021/09/07 05:17:27;;;;;;;21.98;14.73;;;13.30;99.90;;;;;;5057244;28;20055;-87
2021/09/07 05:19:54;;;;;;;18.23;14.63;;;13.40;99.90;;;;;;5074899;28;20131;-87
2021/09/07 05:22:21;;;;;;;21.02;14.98;;;13.50;99.90;;;;;;5074344;28;20561;-87
2021/09/07 05:24:47;;;;;;;21.00;14.38;;;13.50;99.90;;;;;;5057014;28;20052;-87
2021/09/07 05:27:14;;;;;;;18.58;14.52;;;13.60;99.90;;;;;;5074885;28;20044;-87
2021/09/07 05:29:41;;;;;;;22.90;15.10;;;13.60;99.90;;;;;;5057081;28;20049;-87
2021/09/07 05:32:08;;;;;;;21.08;14.40;;;13.60;99.90;;;;;;5057747;28;20135;-87
2021/09/07 05:34:35;;;;;;;20.95;15.40;;;13.70;99.90;;;;;;5064782;28;20048;-87
2021/09/07 05:37:02;;;;;;;18.35;14.43;;;13.70;99.90;;;;;;5078999;28;20071;-86
2021/09/07 05:39:28;;;;;;;20.73;15.15;;;13.80;99.90;;;;;;5061483;28;20052;-88
2021/09/07 05:41:55;;;;;;;26.35;13.77;;;13.90;99.90;;;;;;5074528;28;20508;-88
2021/09/07 05:44:22;;;;;;;15.93;13.65;;;14.00;99.90;;;;;;5057725;28;20058;-88
2021/09/07 05:46:49;;;;;;;19.35;13.55;;;13.90;99.90;;;;;;5056605;28;20052;-88
2021/09/07 05:49:16;;;;;;;16.38;13.32;;;14.00;99.90;;;;;;5056579;28;20075;-87
2021/09/07 05:51:44;;;;;;;14.45;12.77;;;14.00;99.90;;;;;;5056620;28;20044;-88
2021/09/07 05:54:11;;;;;;;16.75;12.57;;;14.10;99.90;;;;;;5056453;28;20117;-87
2021/09/07 05:56:38;;;;;;;19.23;12.88;;;14.10;99.90;;;;;;5056396;28;20094;-87
2021/09/07 05:59:05;;;;;;;19.83;12.20;;;14.20;99.90;;;;;;5056757;28;20044;-88
2021/09/07 06:01:33;;;;;;;18.25;12.70;;;14.20;99.90;;;;;;5056858;28;20135;-87
2021/09/07 06:04:01;;;;;;;15.68;12.70;;;14.30;99.90;;;;;;5056516;28;20052;-87
2021/09/07 06:06:29;;;;;;;19.23;13.15;;;14.30;99.90;;;;;;5056428;28;20055;-88
2021/09/07 06:08:56;;;;;;;14.40;11.88;;;14.40;99.90;;;;;;5056674;28;20132;-87
2021/09/07 06:11:23;;;;;;;18.20;12.82;;;14.60;99.90;;;;;;5055917;28;20048;-87
2021/09/07 06:13:50;;;;;;;18.65;12.73;;;14.60;99.90;;;;;;5056323;28;20048;-87
2021/09/07 06:16:17;;;;;;;16.90;12.65;;;14.70;99.90;;;;;;5055874;28;20052;-87
2021/09/07 06:18:44;;;;;;;15.15;11.45;;;14.80;99.90;;;;;;5055896;28;20094;-86
2021/09/07 06:21:11;;;;;;;20.58;13.98;;;15.00;99.90;;;;;;5056067;28;20135;-87
2021/09/07 06:23:54;;;;;;;18.83;12.87;;;15.10;99.90;;;;;;5058660;28;20052;-87
2021/09/07 06:26:21;;;;;;;21.50;14.40;;;15.30;99.90;;;;;;5055800;28;20301;-87
2021/09/07 06:28:48;;;;;;;33.13;13.75;;;15.60;99.90;;;;;;5055506;28;20052;-87
2021/09/07 06:31:15;;;;;;;23.13;12.18;;;15.80;99.90;;;;;;5055803;28;20048;-87
2021/09/07 06:33:41;;;;;;;31.42;13.52;;;16.00;99.90;;;;;;5055242;28;20061;-87
2021/09/07 06:36:08;;;;;;;25.13;11.82;;;16.30;99.90;;;;;;5055309;28;20055;-87
2021/09/07 06:38:35;;;;;;;35.95;15.45;;;16.60;99.90;;;;;;5055921;28;20048;-87
2021/09/07 06:41:06;;;;;;;29.20;14.60;;;16.80;99.90;;;;;;5055494;28;20049;-87
2021/09/07 06:43:35;;;;;;;31.70;13.93;;;17.00;99.90;;;;;;5073084;28;20139;-86
2021/09/07 06:46:02;;;;;;;27.75;12.55;;;17.10;99.90;;;;;;5055379;28;20063;-87
2021/09/07 06:48:29;;;;;;;16.67;11.00;;;17.30;99.90;;;;;;5055331;28;20045;-87
2021/09/07 06:50:56;;;;;;;19.05;11.05;;;17.30;99.90;;;;;;5073229;28;20044;-86
2021/09/07 06:53:23;;;;;;;13.52;9.90;;;17.30;99.90;;;;;;5061604;28;20045;-87
2021/09/07 06:55:50;;;;;;;10.93;9.77;;;17.40;99.90;;;;;;5075004;28;20119;-87
2021/09/07 06:58:21;;;;;;;10.68;9.57;;;17.40;99.90;;;;;;5075546;28;20071;-87
2021/09/07 07:00:47;;;;;;;15.70;10.88;;;17.50;99.90;;;;;;5072842;28;20515;-87
2021/09/07 07:03:15;;;;;;;12.25;10.63;;;17.60;99.90;;;;;;5055452;28;20482;-86
2021/09/07 07:05:42;;;;;;;12.73;10.95;;;17.60;99.90;;;;;;5055214;28;20477;-87
2021/09/07 07:08:09;;;;;;;12.20;9.70;;;17.60;99.90;;;;;;5055474;28;20132;-87
2021/09/07 07:10:36;;;;;;;17.85;10.30;;;17.90;99.90;;;;;;5072538;28;20107;-87
2021/09/07 07:13:03;;;;;;;15.23;10.38;;;18.30;99.90;;;;;;5073088;28;20048;-87
2021/09/07 07:15:30;;;;;;;13.48;10.00;;;18.50;99.90;;;;;;5072981;28;20044;-87
2021/09/07 07:17:56;;;;;;;14.45;10.43;;;18.50;99.90;;;;;;5073157;28;20094;-87
2021/09/07 07:20:23;;;;;;;11.32;10.15;;;18.50;99.90;;;;;;5055031;28;20044;-88
2021/09/07 07:22:50;;;;;;;13.25;10.75;;;18.50;99.90;;;;;;5072534;28;20106;-87
2021/09/07 07:25:17;;;;;;;12.23;10.95;;;18.40;99.90;;;;;;5054747;28;20048;-87
2021/09/07 07:27:45;;;;;;;13.65;11.32;;;18.30;99.90;;;;;;5055030;28;20048;-87
2021/09/07 07:30:12;;;;;;;13.55;11.10;;;18.20;99.90;;;;;;5055376;28;20133;-87
2021/09/07 07:32:39;;;;;;;13.25;10.38;;;18.10;99.90;;;;;;5055166;28;20401;-87
2021/09/07 07:35:06;;;;;;;11.60;10.18;;;18.10;99.90;;;;;;5072708;28;20060;-87
2021/09/07 07:37:33;;;;;;;12.50;10.77;;;18.40;99.90;;;;;;5072727;28;20404;-87
2021/09/07 07:40:00;;;;;;;14.52;10.90;;;18.80;99.90;;;;;;5055168;28;20055;-87
2021/09/07 07:42:27;;;;;;;14.13;10.38;;;19.10;99.90;;;;;;5055222;28;20055;-87
2021/09/07 07:44:54;;;;;;;17.50;11.30;;;19.40;99.90;;;;;;5054785;28;20136;-87
2021/09/07 07:47:21;;;;;;;18.35;11.32;;;19.90;99.90;;;;;;5058738;28;20138;-87
2021/09/07 07:49:48;;;;;;;16.67;10.80;;;20.30;99.90;;;;;;5058902;28;20041;-87
2021/09/07 07:52:15;;;;;;;19.83;10.95;;;20.80;99.90;;;;;;5076145;28;20044;-86
2021/09/07 07:54:44;;;;;;;17.73;11.05;;;21.30;99.90;;;;;;5058738;28;20041;-86
2021/09/07 07:57:11;;;;;;;15.50;10.13;;;22.60;99.90;;;;;;5076095;28;20055;-87
2021/09/07 07:59:38;;;;;;;19.38;9.68;;;23.80;99.90;;;;;;5076293;28;20041;-88
2021/09/07 08:02:06;;;;;;;12.95;9.57;;;24.80;99.90;;;;;;5075988;28;20139;-87
2021/09/07 08:04:50;;;;;;;18.23;9.82;;;24.80;99.90;;;;;;5060539;28;20063;-88
2021/09/07 08:07:18;;;;;;;14.25;10.40;;;26.10;99.90;;;;;;5058008;28;20048;-87
2021/09/07 08:09:44;;;;;;;12.77;10.30;;;26.50;99.90;;;;;;5058597;28;20406;-87
2021/09/07 08:12:16;;;;;;;13.40;11.13;;;26.40;99.90;;;;;;5083359;28;20069;-87
2021/09/07 08:14:45;;;;;;;15.20;10.82;;;26.30;99.90;;;;;;5081471;28;20071;-87
2021/09/07 08:17:12;;;;;;;13.75;10.98;;;25.40;99.90;;;;;;5060916;28;20388;-87
2021/09/07 08:19:39;;;;;;;16.95;11.45;;;25.30;99.90;;;;;;5057999;28;20131;-87
2021/09/07 08:22:09;;;;;;;15.48;11.38;;;25.00;99.90;;;;;;5058009;28;20055;-87
2021/09/07 08:24:36;;;;;;;18.70;11.63;;;24.70;99.90;;;;;;5057642;28;20075;-86
2021/09/07 08:27:04;;;;;;;14.93;11.07;;;24.70;99.90;;;;;;5075259;28;20147;-88
2021/09/07 08:29:31;;;;;;;15.55;10.82;;;24.70;99.90;;;;;;5074983;28;20511;-87
2021/09/07 08:31:58;;;;;;;14.15;11.40;;;24.70;99.90;;;;;;5057748;28;20173;-86
2021/09/07 08:34:25;;;;;;;15.63;10.98;;;24.90;99.90;;;;;;5057554;28;20041;-87
2021/09/07 08:36:52;;;;;;;16.52;10.98;;;24.70;99.90;;;;;;5057601;28;20056;-86
2021/09/07 08:39:19;;;;;;;16.95;11.00;;;24.80;99.90;;;;;;5075037;28;20044;-87
2021/09/07 08:41:46;;;;;;;13.40;10.20;;;25.10;99.90;;;;;;5075053;28;20507;-87
2021/09/07 08:44:17;;;;;;;13.65;9.95;;;25.50;99.90;;;;;;5057304;28;20128;-87
2021/09/07 08:46:44;;;;;;;15.20;10.48;;;25.60;99.90;;;;;;5075019;28;20102;-86
2021/09/07 08:49:13;;;;;;;13.65;9.35;;;25.70;99.90;;;;;;5057408;28;20098;-87
2021/09/07 08:51:41;;;;;;;13.73;9.65;;;26.20;99.30;;;;;;5074892;28;20139;-88
2021/09/07 08:54:08;;;;;;;14.38;10.02;;;26.20;97.40;;;;;;5057403;28;20048;-87
2021/09/07 08:56:34;;;;;;;14.63;10.10;;;26.20;98.00;;;;;;5056710;28;20051;-84
2021/09/07 08:59:01;;;;;;;12.93;9.35;;;26.40;97.30;;;;;;5056827;28;20052;-87
2021/09/07 09:01:38;;;;;;;12.05;9.57;;;26.50;98.00;;;;;;5057494;28;20048;-87
2021/09/07 09:04:06;;;;;;;15.77;10.43;;;26.80;97.10;;;;;;5057564;28;20136;-86
2021/09/07 09:06:32;;;;;;;14.05;9.48;;;26.70;94.90;;;;;;5057228;28;20128;-87
2021/09/07 09:09:07;;;;;;;17.85;9.98;;;26.10;96.00;;;;;;5074907;28;20451;-87
2021/09/07 09:11:53;;;;;;;11.10;9.20;;;25.90;95.00;;;;;;5057132;28;20465;-87
2021/09/07 09:14:40;;;;;;;12.50;10.27;;;26.10;95.70;;;;;;5057385;28;20456;-89
2021/09/07 09:17:21;;;;;;;13.77;9.88;;;25.30;94.50;;;;;;5057103;28;20074;-87
2021/09/07 09:19:53;;;;;;;11.75;9.48;;;24.90;95.90;;;;;;5074580;28;20051;-88
2021/09/07 09:22:21;;;;;;;15.13;9.18;;;25.10;96.10;;;;;;5074570;28;20053;-88
2021/09/07 09:24:48;;;;;;;14.18;9.32;;;25.30;95.30;;;;;;5056889;28;20048;-88
2021/09/07 09:27:14;;;;;;;14.68;9.55;;;25.30;95.70;;;;;;5056835;28;20048;-88
2021/09/07 09:29:42;;;;;;;12.65;8.98;;;24.90;96.10;;;;;;5057352;28;20051;-87
2021/09/07 09:32:16;;;;;;;13.40;9.05;;;25.70;95.10;;;;;;5075411;28;20136;-87
2021/09/07 09:34:43;;;;;;;10.35;8.40;;;25.70;95.30;;;;;;5072877;28;20472;-87
2021/09/07 09:37:14;;;;;;;11.32;8.77;;;25.90;94.40;;;;;;5074062;28;20128;-88
2021/09/07 09:39:45;;;;;;;14.07;9.00;;;26.10;93.70;;;;;;5056737;28;20417;-87
2021/09/07 09:42:30;;;;;;;10.07;8.50;;;26.30;93.50;;;;;;5056415;28;20041;-87
2021/09/07 09:45:06;;;;;;;10.73;8.98;;;26.30;92.70;;;;;;5056188;28;20048;-87
2021/09/07 09:47:39;;;;;;;15.80;10.23;;;26.40;92.40;;;;;;5073865;28;20394;-87
2021/09/07 09:50:07;;;;;;;11.45;9.68;;;26.80;90.70;;;;;;5056196;28;20135;-87
2021/09/07 09:52:40;;;;;;;10.65;8.48;;;26.50;90.00;;;;;;5056544;28;20382;-87
2021/09/07 09:55:10;;;;;;;11.30;8.65;;;26.50;90.60;;;;;;5056229;28;20063;-88
2021/09/07 09:57:37;;;;;;;11.32;9.27;;;26.10;91.20;;;;;;5056312;28;20398;-87
2021/09/07 10:00:09;;;;;;;9.82;7.97;;;26.10;92.00;;;;;;5056206;28;20048;-87
2021/09/07 10:02:36;;;;;;;9.35;8.18;;;26.70;92.60;;;;;;5056248;28;20144;-87
2021/09/07 10:05:04;;;;;;;10.32;9.07;;;27.20;91.30;;;;;;5055963;28;20139;-87
2021/09/07 10:07:33;;;;;;;11.23;8.30;;;27.20;90.50;;;;;;5056264;28;20049;-84
2021/09/07 10:10:01;;;;;;;9.52;8.52;;;27.30;90.60;;;;;;5056266;28;20063;-87
2021/09/07 10:12:40;;;;;;;13.13;9.20;;;27.20;90.10;;;;;;5073568;28;20098;-88
2021/09/07 10:15:26;;;;;;;11.90;9.85;;;27.30;89.10;;;;;;5055677;28;20067;-88
2021/09/07 10:26:44;;;;;;;14.50;9.90;;;26.50;94.90;;;;;;5073220;28;20486;-86
2021/09/07 10:29:20;;;;;;;11.73;10.43;;;26.60;95.10;;;;;;5055349;28;20480;-86
2021/09/07 10:31:52;;;;;;;14.05;10.50;;;26.30;94.60;;;;;;5055487;28;20489;-87
2021/09/07 10:34:25;;;;;;;10.73;9.60;;;25.80;95.00;;;;;;5072998;28;20049;-86
2021/09/07 10:37:00;;;;;;;;;;;26.40;96.10;;;;;;5055602;28;20048;-88
2021/09/07 10:39:41;;;;;;;12.15;10.15;;;26.40;95.80;;;;;;5055478;28;19920;-87
2021/09/07 10:42:12;;;;;;;12.68;10.05;;;26.20;94.70;;;;;;5055231;28;20445;-87
2021/09/07 10:44:56;;;;;;;10.70;9.57;;;26.60;95.00;;;;;;5073065;28;20059;-87
2021/09/07 10:47:39;;;;;;;14.32;9.70;;;26.90;93.80;;;;;;5055816;28;20139;-86
2021/09/07 10:50:06;;;;;;;13.80;9.65;;;27.30;93.80;;;;;;5063424;28;20100;-87
2021/09/07 10:52:34;;;;;;;13.88;9.85;;;27.90;93.10;;;;;;5092502;28;20044;-88
2021/09/07 10:55:06;;;;;;;12.75;9.98;;;28.30;92.40;;;;;;5056938;28;20481;-87
2021/09/07 10:57:34;;;;;;;11.60;10.40;;;27.90;90.40;;;;;;5073165;28;20056;-87
2021/09/07 11:00:26;;;;;;;14.95;11.20;;;27.60;88.60;;;;;;5055550;28;20614;-87
2021/09/07 11:03:01;;;;;;;12.95;10.50;;;27.50;88.80;;;;;;5055504;28;20049;-86
2021/09/07 11:05:29;;;;;;;11.77;10.20;;;27.70;86.30;;;;;;5055457;28;20048;-84
2021/09/07 11:08:03;;;;;;;11.80;10.02;;;27.50;89.40;;;;;;5055552;28;20131;-84
2021/09/07 11:10:38;;;;;;;12.32;9.88;;;27.60;89.90;;;;;;5055312;28;20052;-85
2021/09/07 11:13:17;;;;;;;11.50;10.20;;;27.50;86.10;;;;;;5055427;28;20136;-84
2021/09/07 11:15:45;;;;;;;12.07;9.55;;;27.30;86.30;;;;;;5055497;28;20098;-86
2021/09/07 11:18:21;;;;;;;12.23;10.35;;;27.70;86.60;;;;;;5072826;28;20044;-87
2021/09/07 11:20:49;;;;;;;12.35;10.18;;;27.50;86.20;;;;;;5056436;28;20146;-83
2021/09/07 11:23:19;;;;;;;15.35;10.35;;;28.20;86.30;;;;;;5059041;28;20051;-86
2021/09/07 11:26:07;;;;;;;10.48;9.35;;;28.60;84.70;;;;;;5058846;28;20382;-85
2021/09/07 11:28:35;;;;;;;11.70;9.75;;;28.70;85.60;;;;;;5058918;28;20049;-86
2021/09/07 11:31:04;;;;;;;11.20;9.55;;;28.50;84.30;;;;;;5058719;28;20082;-87
2021/09/07 11:33:35;;;;;;;11.48;10.02;;;28.60;84.00;;;;;;5076603;28;20147;-85
2021/09/07 11:36:08;;;;;;;12.52;10.65;;;28.50;81.30;;;;;;5059147;28;20456;-86
2021/09/07 11:38:36;;;;;;;13.30;11.63;;;27.60;80.30;;;;;;5076680;28;20428;-85
2021/09/07 11:41:05;;;;;;;13.77;10.55;;;27.00;85.50;;;;;;5058777;28;20053;-85
2021/09/07 11:43:38;;;;;;;12.95;9.95;;;26.70;84.80;;;;;;5058613;28;20055;-85
2021/09/07 11:46:13;;;;;;;23.50;10.68;;;27.20;84.80;;;;;;5058535;28;20084;-84
2021/09/07 11:48:46;;;;;;;13.70;10.20;;;27.50;84.90;;;;;;5058815;28;20052;-86
2021/09/07 11:51:19;;;;;;;11.65;10.32;;;27.70;84.60;;;;;;5076294;28;20049;-86
2021/09/07 11:53:52;;;;;;;12.75;9.70;;;27.30;85.10;;;;;;5058423;28;20056;-87
2021/09/07 11:56:21;;;;;;;10.18;9.18;;;27.70;86.90;;;;;;5058511;28;20481;-87
2021/09/07 11:58:48;;;;;;;9.82;8.93;;;28.10;85.70;;;;;;5058390;28;20124;-87
2021/09/07 12:01:22;;;;;;;12.73;9.25;;;28.00;80.30;;;;;;5058639;28;20174;-84
2021/09/07 12:04:03;;;;;;;16.55;11.60;;;28.40;80.70;;;;;;5076389;28;20096;-85
2021/09/07 12:06:42;;;;;;;15.82;11.32;;;27.80;83.60;;;;;;5058391;28;20052;-87
2021/09/07 12:09:16;;;;;;;16.25;10.68;;;27.10;87.90;;;;;;5070346;28;20114;-84
2021/09/07 12:11:46;;;;;;;14.25;10.63;;;27.20;86.50;;;;;;5097698;28;20472;-88
2021/09/07 12:14:22;;;;;;;16.15;9.93;;;26.90;88.10;;;;;;5060065;28;20055;-85
2021/09/07 12:16:53;;;;;;;12.52;10.00;;;27.30;88.80;;;;;;5057938;28;20409;-86
2021/09/07 12:19:34;;;;;;;12.68;10.63;;;27.40;89.70;;;;;;5057821;28;20485;-84
2021/09/07 12:22:24;;;;;;;14.50;11.18;;;27.40;89.80;;;;;;5057712;28;20048;-84
2021/09/07 12:25:01;;;;;;;14.90;12.00;;;27.00;88.50;;;;;;5057350;28;20207;-87
2021/09/07 12:27:50;;;;;;;17.00;11.05;;;26.90;89.20;;;;;;5075101;28;20053;-87
2021/09/07 12:30:25;;;;;;;15.98;12.02;;;26.70;91.00;;;;;;5057882;28;20055;-86
2021/09/07 12:33:02;;;;;;;15.18;11.07;;;26.30;88.20;;;;;;5056666;28;20127;-86
2021/09/07 12:35:28;;;;;;;13.98;10.48;;;26.20;90.40;;;;;;5057118;28;20045;-87
2021/09/07 12:37:56;;;;;;;19.73;10.70;;;26.10;90.90;;;;;;5075241;28;20054;-86
2021/09/07 12:40:23;;;;;;;11.48;10.10;;;25.80;91.00;;;;;;5056840;28;20056;-85
2021/09/07 12:42:50;;;;;;;12.60;10.55;;;25.60;91.70;;;;;;5057440;28;20044;-86
2021/09/07 12:45:21;;;;;;;16.92;10.82;;;25.40;91.40;;;;;;5057231;28;20045;-86